Terminal Aerodrome Forecast
Issued by NWS

Current Version | Previous Version | Text Only | Print | Product List | Glossary On
Versions: 1 2 3 4 5 6 7 8 9 10 11 12 13 14 15
760
FTUS43 KIND 082325
TAFHUF
TAF
KHUF 082325Z 0900/0924 29012G23KT 4SM -SHSN SCT012 OVC020
      TEMPO 0900/0904 2SM -SN BR
     FM090400 29010G19KT 5SM -SHSN SCT015 OVC025
     FM090800 29010G20KT 3SM -SHSN BR OVC015=

USA.gov is the U.S. government's official web portal to all federal, state and local government web resources and services.